Agawam, Massachusetts
Current Conditions -  °F | °C
As of 1:37 AM on Monday 24 Nov 2014 (Local Time) from KBAF Reporting Station
Overcast Overcast  
Wind Chill: 40°   Ceiling: 1700
Heat Index: 40°   Visibility: 10mi
Dew Point: 32°   Wind: 0mph
Humidity: 73%   Direction: NA
Pressure: 30"   Gusts: NA
Location:  42.07°N, 72.61°W
Report Text: KBAF 240637Z AUTO 00000KT 10SM BKN017 OVC039 04/00 A3000 RMK AO2 T00440000
Loading
Personal Weather Stations






























Interactive Weather Map New forecast layout! Learn more

10-Day Weather Forecast

Advertisements
Track Severe Weather on mobile